< < Back
Terminal Aerodrome Forecast


Current Version              Previous Versions:   1  2  3  4  5  6  7  8  9  

Terminal Aerodrome Forecast

980
FTUS44 KMOB 301509 AAB
TAFPNS
TAF AMD
KPNS 301509Z 3015/0112 00000KT 3SM -TSRA BR BKN006 OVC025CB
     FM301600 17009KT 6SM -SHRA SCT010 OVC025
     FM302100 18003KT P6SM VCTS BKN025CB=



Latest METAR

580
SAUS70 KWBC 011500 RRX
MTRPNS
METAR KPNS 011453Z COR 29007KT 10SM SCT017 SCT041 29/23 A3002 RMK AO2
SLP165 60004 T02940228 51007


USA.gov is the U.S. government's official web portal to all federal, state and local government web resources and services.